createdAt,value
2018-12-02T00:00:22.182Z,8.50
2018-12-02T00:05:26.685Z,8.20
2018-12-02T00:10:47.062Z,8.00
2018-12-02T00:15:50.723Z,7.90
2018-12-02T00:20:55.175Z,7.90
2018-12-02T00:25:58.804Z,7.90
2018-12-02T00:31:02.486Z,8.00
2018-12-02T00:36:06.628Z,7.90
2018-12-02T00:41:10.119Z,8.00
2018-12-02T00:46:13.653Z,8.00
2018-12-02T00:51:17.224Z,8.00
2018-12-02T00:56:19.108Z,8.00
2018-12-02T01:01:22.880Z,8.00
2018-12-02T01:06:26.482Z,8.00
2018-12-02T01:11:30.097Z,8.10
2018-12-02T01:16:33.720Z,8.20
2018-12-02T01:21:37.314Z,8.20
2018-12-02T01:26:40.856Z,8.20
2018-12-02T01:31:44.441Z,8.30
2018-12-02T01:36:48.043Z,8.20
2018-12-02T01:41:51.882Z,8.30
2018-12-02T01:46:55.445Z,8.30
2018-12-02T01:51:59.041Z,8.20
2018-12-02T01:57:02.950Z,8.30
2018-12-02T02:02:06.651Z,8.30
2018-12-02T02:07:10.248Z,8.40
2018-12-02T02:12:13.842Z,8.30
2018-12-02T02:17:17.350Z,8.30
2018-12-02T02:22:20.860Z,8.20
2018-12-02T02:27:24.484Z,8.10
2018-12-02T02:32:28.177Z,8.10
2018-12-02T02:37:31.940Z,8.20
2018-12-02T02:42:35.643Z,8.10
2018-12-02T02:47:39.154Z,8.20
2018-12-02T02:52:44.950Z,8.20
2018-12-02T02:57:48.460Z,8.20
2018-12-02T03:02:51.993Z,8.30
2018-12-02T03:07:55.713Z,8.30
2018-12-02T03:12:59.229Z,8.30
2018-12-02T03:18:02.903Z,8.30
2018-12-02T03:23:06.515Z,8.40
2018-12-02T03:28:10.020Z,8.40
2018-12-02T03:33:13.600Z,8.40
2018-12-02T03:38:17.177Z,8.50
2018-12-02T03:43:20.854Z,8.60
2018-12-02T03:48:24.469Z,8.60
2018-12-02T03:53:29.009Z,8.60
2018-12-02T03:58:32.558Z,8.60
2018-12-02T04:03:36.260Z,8.60
2018-12-02T04:08:39.912Z,8.60
2018-12-02T04:13:43.636Z,8.60
2018-12-02T04:18:47.251Z,8.60
2018-12-02T04:23:50.836Z,8.70
2018-12-02T04:28:54.435Z,8.70
2018-12-02T04:33:58.162Z,8.70
2018-12-02T04:39:01.732Z,8.80
2018-12-02T04:44:06.750Z,8.70
2018-12-02T04:50:34.758Z,8.90
2018-12-02T04:55:38.283Z,8.90
2018-12-02T05:00:41.769Z,8.90
2018-12-02T05:05:46.187Z,9.00
2018-12-02T05:10:49.742Z,9.10
2018-12-02T05:15:53.303Z,9.10
2018-12-02T05:20:56.914Z,9.10
2018-12-02T05:26:00.529Z,9.20
2018-12-02T05:31:04.465Z,9.20
2018-12-02T05:36:08.019Z,9.20
2018-12-02T05:41:11.578Z,9.10
2018-12-02T05:46:15.006Z,9.10
2018-12-02T05:51:18.631Z,9.10
2018-12-02T05:56:22.307Z,9.00
2018-12-02T06:01:25.851Z,9.10
2018-12-02T06:06:29.585Z,9.00
2018-12-02T06:11:33.166Z,9.00
2018-12-02T06:16:36.989Z,9.10
2018-12-02T06:21:40.475Z,9.10
2018-12-02T06:26:44.055Z,9.10
2018-12-02T06:31:47.539Z,9.10
2018-12-02T06:36:51.118Z,9.10
2018-12-02T06:41:54.602Z,9.10
2018-12-02T06:46:58.170Z,9.20
2018-12-02T06:52:01.775Z,9.10
2018-12-02T06:57:11.448Z,9.20
2018-12-02T07:04:47.695Z,9.20
2018-12-02T07:09:51.124Z,9.10
2018-12-02T07:14:54.696Z,8.90
2018-12-02T07:20:04.799Z,8.90
2018-12-02T07:25:12.696Z,8.90
2018-12-02T07:30:16.141Z,8.90
2018-12-02T07:35:19.702Z,8.90
2018-12-02T07:40:43.265Z,8.90
2018-12-02T07:45:46.883Z,8.90
2018-12-02T07:50:50.608Z,8.90
2018-12-02T07:55:54.205Z,8.90
2018-12-02T08:00:57.764Z,8.90
2018-12-02T08:06:01.357Z,8.90
2018-12-02T08:11:05.572Z,9.00
2018-12-02T08:16:09.231Z,9.00
2018-12-02T08:21:12.724Z,9.00
2018-12-02T08:26:16.225Z,9.00
2018-12-02T08:31:19.727Z,9.00
2018-12-02T08:36:23.311Z,9.00
2018-12-02T08:41:26.852Z,9.00
2018-12-02T08:46:30.571Z,9.00
2018-12-02T08:51:34.383Z,9.00
2018-12-02T08:56:37.937Z,9.10
2018-12-02T09:01:41.471Z,9.10
2018-12-02T09:06:45.057Z,9.10
2018-12-02T09:11:48.673Z,9.10
2018-12-02T09:16:52.319Z,9.60
2018-12-02T09:21:55.811Z,9.80
2018-12-02T09:26:59.763Z,9.80
2018-12-02T09:32:03.748Z,9.80
2018-12-02T09:37:07.680Z,9.90
2018-12-02T09:42:11.415Z,9.80
2018-12-02T09:47:14.982Z,9.40
2018-12-02T09:52:18.896Z,9.30
2018-12-02T09:57:22.444Z,9.30
2018-12-02T10:02:26.035Z,9.30
2018-12-02T10:07:29.561Z,9.20
2018-12-02T10:12:33.302Z,9.20
2018-12-02T10:17:37.266Z,9.20
2018-12-02T10:22:40.878Z,9.10
2018-12-02T10:27:45.081Z,9.10
2018-12-02T10:32:49.297Z,9.20
2018-12-02T10:37:53.912Z,9.20
2018-12-02T10:42:57.545Z,9.20
2018-12-02T10:48:02.363Z,9.20
2018-12-02T10:53:15.884Z,9.20
2018-12-02T10:58:32.051Z,9.30
2018-12-02T11:03:35.728Z,9.30
2018-12-02T11:08:39.476Z,9.30
2018-12-02T11:13:43.169Z,9.30
2018-12-02T11:18:46.800Z,9.40
2018-12-02T11:23:50.461Z,9.30
2018-12-02T11:28:54.019Z,9.30
2018-12-02T11:33:57.535Z,9.40
2018-12-02T11:39:01.205Z,9.40
2018-12-02T11:44:05.269Z,9.40
2018-12-02T11:49:08.803Z,9.40
2018-12-02T11:54:12.342Z,9.50
2018-12-02T11:59:15.967Z,9.50
2018-12-02T12:04:19.562Z,9.50
2018-12-02T12:09:23.233Z,9.50
2018-12-02T12:14:26.861Z,9.60
2018-12-02T12:19:30.578Z,9.70
2018-12-02T12:24:34.275Z,9.70
2018-12-02T12:29:37.918Z,9.70
2018-12-02T12:34:41.470Z,9.70
2018-12-02T12:39:45.230Z,9.70
2018-12-02T12:44:49.296Z,9.70
2018-12-02T12:49:52.908Z,9.70
2018-12-02T12:54:56.655Z,9.70
2018-12-02T13:00:00.191Z,9.70
2018-12-02T13:05:04.300Z,9.80
2018-12-02T13:10:13.989Z,9.80
2018-12-02T13:15:22.638Z,9.80
2018-12-02T13:20:34.662Z,9.80
2018-12-02T13:25:38.603Z,9.80
2018-12-02T13:30:42.171Z,9.90
2018-12-02T13:35:45.805Z,9.90
2018-12-02T13:40:49.386Z,9.90
2018-12-02T13:45:53.306Z,10.00
2018-12-02T13:50:57.324Z,10.00
2018-12-02T13:56:01.033Z,10.00
2018-12-02T14:01:04.821Z,10.00
2018-12-02T14:06:08.042Z,10.10
2018-12-02T14:11:11.682Z,10.10
2018-12-02T14:16:28.074Z,10.10
2018-12-02T14:21:31.946Z,10.10
2018-12-02T14:26:36.359Z,10.10
2018-12-02T14:31:43.084Z,10.10
2018-12-02T14:36:46.606Z,10.10
2018-12-02T14:41:50.239Z,10.20
2018-12-02T14:46:53.935Z,10.30
2018-12-02T14:51:57.543Z,10.30
2018-12-02T14:57:01.041Z,10.40
2018-12-02T15:02:05.259Z,10.30
2018-12-02T15:07:09.017Z,10.40
2018-12-02T15:12:12.565Z,10.40
2018-12-02T15:17:16.135Z,10.40
2018-12-02T15:22:19.639Z,10.50
2018-12-02T15:27:23.177Z,10.50
2018-12-02T15:32:27.747Z,10.60
2018-12-02T15:37:31.481Z,10.60
2018-12-02T15:42:35.044Z,10.60
2018-12-02T15:47:38.623Z,10.70
2018-12-02T15:52:42.626Z,10.70
2018-12-02T15:57:46.259Z,10.60
2018-12-02T16:02:49.849Z,10.70
2018-12-02T16:07:53.357Z,10.80
2018-12-02T16:12:56.839Z,10.90
2018-12-02T16:18:02.009Z,10.90
2018-12-02T16:23:05.153Z,11.40
2018-12-02T16:28:08.729Z,11.40
2018-12-02T16:33:12.283Z,11.30
2018-12-02T16:38:15.932Z,11.30
2018-12-02T16:43:19.553Z,11.30
2018-12-02T16:48:23.341Z,11.30
2018-12-02T16:53:29.039Z,11.40
2018-12-02T16:59:43.879Z,11.40
2018-12-02T17:04:47.349Z,11.50
2018-12-02T17:09:51.013Z,11.50
2018-12-02T17:14:54.491Z,11.60
2018-12-02T17:19:58.254Z,11.70
2018-12-02T17:25:01.851Z,11.70
2018-12-02T17:31:21.974Z,11.60
2018-12-02T17:36:25.542Z,11.60
2018-12-02T17:41:29.210Z,11.60
2018-12-02T17:46:33.973Z,11.70
2018-12-02T17:51:37.469Z,11.60
2018-12-02T17:56:41.453Z,11.60
2018-12-02T18:01:45.055Z,11.60
2018-12-02T18:06:48.654Z,11.60
2018-12-02T18:11:52.158Z,11.60
2018-12-02T18:16:55.898Z,11.60
2018-12-02T18:21:59.490Z,11.60
2018-12-02T18:27:03.216Z,11.60
2018-12-02T18:32:06.923Z,11.60
2018-12-02T18:37:11.883Z,11.60
2018-12-02T18:42:15.435Z,11.60
2018-12-02T18:47:19.171Z,11.60
2018-12-02T18:52:22.733Z,11.60
2018-12-02T18:57:26.407Z,11.60
2018-12-02T19:02:30.010Z,11.60
2018-12-02T19:07:33.715Z,11.70
2018-12-02T19:12:37.216Z,11.70
2018-12-02T19:17:40.866Z,11.70
2018-12-02T19:22:46.403Z,11.80
2018-12-02T19:27:49.962Z,11.70
2018-12-02T19:32:54.402Z,11.70
2018-12-02T19:38:16.415Z,11.70
2018-12-02T19:43:20.202Z,11.70
2018-12-02T19:48:23.782Z,11.70
2018-12-02T19:53:27.363Z,11.70
2018-12-02T19:58:31.109Z,11.70
2018-12-02T20:03:34.735Z,11.70
2018-12-02T20:08:38.497Z,11.70
2018-12-02T20:13:42.236Z,11.70
2018-12-02T20:18:46.807Z,11.80
2018-12-02T20:23:56.022Z,11.80
2018-12-02T20:28:59.956Z,11.90
2018-12-02T20:34:04.154Z,11.90
2018-12-02T20:39:10.903Z,11.90
2018-12-02T20:44:14.443Z,12.00
2018-12-02T20:49:18.230Z,12.00
2018-12-02T20:54:21.830Z,12.00
2018-12-02T20:59:25.389Z,12.00
2018-12-02T21:04:29.097Z,12.00
2018-12-02T21:09:32.762Z,12.00
2018-12-02T21:14:36.586Z,12.00
2018-12-02T21:19:40.120Z,11.90
2018-12-02T21:24:44.129Z,11.90
2018-12-02T21:29:47.887Z,12.00
2018-12-02T21:34:51.946Z,12.00
2018-12-02T21:39:55.580Z,12.00
2018-12-02T21:44:59.239Z,12.00
2018-12-02T21:50:04.257Z,11.90
2018-12-02T21:55:08.463Z,11.90
2018-12-02T22:00:22.110Z,11.90
2018-12-02T22:05:25.947Z,11.90
2018-12-02T22:10:32.232Z,12.00
2018-12-02T22:15:35.975Z,12.00
2018-12-02T22:20:39.629Z,12.00
2018-12-02T22:25:44.379Z,12.70
2018-12-02T22:30:48.602Z,12.30
2018-12-02T22:35:52.251Z,12.20
2018-12-02T22:40:55.889Z,12.20
2018-12-02T22:46:00.738Z,12.50
2018-12-02T22:51:04.842Z,12.80
2018-12-02T22:56:08.412Z,13.10
2018-12-02T23:01:17.655Z,13.00
2018-12-02T23:06:21.604Z,12.70
2018-12-02T23:11:25.173Z,12.50
2018-12-02T23:16:28.785Z,12.30
2018-12-02T23:21:32.451Z,12.20
2018-12-02T23:26:36.115Z,12.20
2018-12-02T23:31:39.762Z,12.20
2018-12-02T23:36:43.353Z,12.20
2018-12-02T23:41:47.108Z,12.10
2018-12-02T23:46:50.697Z,12.10
2018-12-02T23:51:55.344Z,12.10
2018-12-02T23:56:59.551Z,12.10
